createdAt,value
2023-03-16T00:00:43.102Z,6.25
2023-03-16T00:03:19.562Z,6.63
2023-03-16T00:05:50.138Z,6.22
2023-03-16T00:08:17.486Z,6.10
2023-03-16T00:10:47.325Z,6.22
2023-03-16T00:13:14.997Z,6.25
2023-03-16T00:15:41.966Z,5.78
2023-03-16T00:18:08.512Z,5.93
2023-03-16T00:20:35.285Z,5.35
2023-03-16T00:23:02.759Z,5.82
2023-03-16T00:25:29.724Z,6.05
2023-03-16T00:27:56.380Z,6.35
2023-03-16T00:30:22.936Z,6.28
2023-03-16T00:32:50.327Z,6.43
2023-03-16T00:35:17.231Z,6.82
2023-03-16T00:37:44.317Z,7.32
2023-03-16T00:40:12.568Z,7.28
2023-03-16T00:42:40.397Z,6.57
2023-03-16T00:45:07.430Z,7.22
2023-03-16T00:47:34.868Z,6.95
2023-03-16T00:50:02.275Z,7.30
2023-03-16T00:52:28.841Z,8.50
2023-03-16T00:54:57.442Z,7.95
2023-03-16T00:57:28.089Z,7.78
2023-03-16T00:59:56.578Z,8.00
2023-03-16T01:02:26.049Z,7.80
2023-03-16T01:04:54.697Z,7.35
2023-03-16T01:07:21.945Z,7.55
2023-03-16T01:09:48.612Z,7.30
2023-03-16T01:12:17.236Z,7.43
2023-03-16T01:14:47.845Z,6.75
2023-03-16T01:17:15.136Z,7.20
2023-03-16T01:19:43.047Z,7.88
2023-03-16T01:22:10.424Z,9.20
2023-03-16T01:24:38.630Z,8.32
2023-03-16T01:27:06.344Z,8.38
2023-03-16T01:29:33.197Z,8.60
2023-03-16T01:32:00.118Z,9.50
2023-03-16T01:34:26.620Z,8.95
2023-03-16T01:36:53.241Z,8.95
2023-03-16T01:39:27.243Z,8.75
2023-03-16T01:41:54.310Z,8.98
2023-03-16T01:44:24.410Z,9.82
2023-03-16T01:46:51.231Z,8.93
2023-03-16T01:49:20.612Z,8.90
2023-03-16T01:51:53.246Z,8.50
2023-03-16T01:54:40.891Z,8.10
2023-03-16T01:57:10.487Z,8.27
2023-03-16T01:59:39.998Z,8.23
2023-03-16T02:02:07.895Z,8.02
2023-03-16T02:04:34.420Z,8.75
2023-03-16T02:07:04.755Z,8.65
2023-03-16T02:09:32.051Z,9.57
2023-03-16T02:11:58.872Z,9.07
2023-03-16T02:14:27.291Z,8.15
2023-03-16T02:16:55.755Z,8.27
2023-03-16T02:19:34.342Z,8.38
2023-03-16T02:22:08.360Z,8.05
2023-03-16T02:24:36.017Z,8.98
2023-03-16T02:27:07.942Z,8.23
2023-03-16T02:29:52.826Z,8.35
2023-03-16T02:32:21.190Z,8.35
2023-03-16T02:34:47.675Z,7.72
2023-03-16T02:37:14.292Z,8.15
2023-03-16T02:39:44.126Z,7.55
2023-03-16T02:42:15.529Z,7.72
2023-03-16T02:44:44.770Z,8.93
2023-03-16T02:47:35.509Z,8.35
2023-03-16T02:50:06.490Z,8.35
2023-03-16T02:52:43.373Z,8.30
2023-03-16T02:55:21.123Z,7.90
2023-03-16T03:00:39.230Z,8.00
2023-03-16T03:03:18.415Z,7.90
2023-03-16T03:05:54.983Z,9.93
2023-03-16T03:08:24.603Z,9.15
2023-03-16T03:10:51.388Z,7.93
2023-03-16T03:13:17.884Z,9.00
2023-03-16T03:15:45.411Z,8.90
2023-03-16T03:18:14.690Z,8.38
2023-03-16T03:20:41.503Z,8.80
2023-03-16T03:23:09.809Z,9.63
2023-03-16T03:25:36.320Z,10.60
2023-03-16T03:28:05.564Z,10.02
2023-03-16T03:30:32.572Z,9.30
2023-03-16T03:32:59.234Z,8.63
2023-03-16T03:35:25.836Z,8.55
2023-03-16T03:37:52.512Z,8.00
2023-03-16T03:40:20.075Z,8.05
2023-03-16T03:42:51.377Z,7.68
2023-03-16T03:45:18.324Z,8.13
2023-03-16T03:47:44.864Z,8.07
2023-03-16T03:50:16.700Z,7.05
2023-03-16T03:53:05.177Z,6.97
2023-03-16T03:55:37.896Z,7.38
2023-03-16T03:58:04.497Z,7.60
2023-03-16T04:00:31.199Z,7.20
2023-03-16T04:02:57.905Z,7.32
2023-03-16T04:05:47.495Z,6.80
2023-03-16T04:08:14.455Z,7.28
2023-03-16T04:10:41.162Z,6.50
2023-03-16T04:13:07.669Z,6.60
2023-03-16T04:15:35.192Z,6.15
2023-03-16T04:18:08.194Z,5.93
2023-03-16T04:20:35.200Z,5.95
2023-03-16T04:23:01.726Z,6.00
2023-03-16T04:25:30.798Z,6.00
2023-03-16T04:27:58.450Z,6.22
2023-03-16T04:30:28.725Z,5.97
2023-03-16T04:33:04.615Z,6.72
2023-03-16T04:35:32.010Z,6.63
2023-03-16T04:37:58.650Z,6.18
2023-03-16T04:40:36.168Z,5.85
2023-03-16T04:43:09.367Z,5.60
2023-03-16T04:45:36.528Z,6.30
2023-03-16T04:48:03.235Z,5.65
2023-03-16T04:50:31.192Z,6.28
2023-03-16T04:52:57.791Z,5.72
2023-03-16T04:55:25.216Z,6.03
2023-03-16T04:57:52.621Z,5.25
2023-03-16T05:00:21.445Z,5.75
2023-03-16T05:02:56.315Z,6.03
2023-03-16T05:05:23.034Z,5.35
2023-03-16T05:07:49.610Z,5.85
2023-03-16T05:10:18.992Z,5.28
2023-03-16T05:12:46.873Z,5.90
2023-03-16T05:15:14.550Z,5.35
2023-03-16T05:17:42.780Z,5.00
2023-03-16T05:20:14.064Z,5.20
2023-03-16T05:22:46.518Z,5.28
2023-03-16T05:25:17.758Z,6.07
2023-03-16T05:27:48.826Z,6.13
2023-03-16T05:30:21.860Z,5.65
2023-03-16T05:32:49.013Z,5.78
2023-03-16T05:35:16.173Z,5.65
2023-03-16T05:37:43.492Z,5.95
2023-03-16T05:40:18.269Z,6.20
2023-03-16T05:42:55.328Z,6.00
2023-03-16T05:45:23.606Z,6.18
2023-03-16T05:48:05.844Z,6.30
2023-03-16T05:50:36.500Z,5.80
2023-03-16T05:53:03.885Z,6.43
2023-03-16T05:55:30.424Z,6.20
2023-03-16T05:58:00.698Z,6.13
2023-03-16T06:00:27.884Z,6.65
2023-03-16T06:03:05.920Z,6.35
2023-03-16T06:05:35.546Z,5.72
2023-03-16T06:08:03.581Z,6.50
2023-03-16T06:10:31.042Z,6.00
2023-03-16T06:12:59.778Z,7.50
2023-03-16T06:15:26.729Z,7.30
2023-03-16T06:17:54.914Z,7.45
2023-03-16T06:20:21.797Z,6.55
2023-03-16T06:22:48.545Z,6.80
2023-03-16T06:25:15.137Z,6.05
2023-03-16T06:27:43.518Z,6.15
2023-03-16T06:30:15.273Z,6.18
2023-03-16T06:32:45.854Z,6.57
2023-03-16T06:35:12.919Z,5.82
2023-03-16T06:37:44.666Z,5.50
2023-03-16T06:40:31.530Z,6.13
2023-03-16T06:42:58.197Z,5.57
2023-03-16T06:45:25.714Z,5.85
2023-03-16T06:47:54.514Z,5.75
2023-03-16T06:50:21.453Z,5.78
2023-03-16T06:52:47.958Z,5.47
2023-03-16T06:55:14.810Z,5.75
2023-03-16T06:57:45.190Z,4.72
2023-03-16T07:00:14.130Z,5.00
2023-03-16T07:02:41.158Z,5.53
2023-03-16T07:05:11.032Z,4.55
2023-03-16T07:07:37.734Z,4.63
2023-03-16T07:10:04.456Z,4.25
2023-03-16T07:12:31.402Z,4.30
2023-03-16T07:14:58.003Z,4.40
2023-03-16T07:17:25.163Z,3.65
2023-03-16T07:19:51.724Z,3.40
2023-03-16T07:22:18.467Z,3.95
2023-03-16T07:24:45.317Z,2.90
2023-03-16T07:27:12.683Z,3.85
2023-03-16T07:29:39.927Z,3.13
2023-03-16T07:32:09.996Z,3.30
2023-03-16T07:34:38.121Z,3.53
2023-03-16T07:37:05.338Z,3.30
2023-03-16T07:39:33.025Z,3.00
2023-03-16T07:42:06.361Z,3.15
2023-03-16T07:44:58.153Z,3.15
2023-03-16T07:47:26.563Z,2.50
2023-03-16T07:49:56.542Z,2.92
2023-03-16T07:52:24.138Z,3.10
2023-03-16T07:54:51.894Z,3.25
2023-03-16T07:57:18.601Z,3.58
2023-03-16T07:59:45.293Z,2.72
2023-03-16T08:02:15.421Z,3.25
2023-03-16T08:04:42.770Z,2.97
2023-03-16T08:07:10.301Z,2.75
2023-03-16T08:09:57.312Z,3.00
2023-03-16T08:12:30.744Z,3.00
2023-03-16T08:14:57.945Z,2.38
2023-03-16T08:17:27.969Z,2.78
2023-03-16T08:19:55.360Z,2.47
2023-03-16T08:22:23.720Z,2.25
2023-03-16T08:24:50.604Z,2.90
2023-03-16T08:27:19.690Z,2.53
2023-03-16T08:29:53.427Z,2.00
2023-03-16T08:32:22.367Z,2.40
2023-03-16T08:34:50.128Z,2.17
2023-03-16T08:37:17.547Z,1.70
2023-03-16T08:39:45.714Z,2.50
2023-03-16T08:42:16.217Z,1.70
2023-03-16T08:44:47.999Z,1.45
2023-03-16T08:47:15.006Z,1.75
2023-03-16T08:49:44.763Z,1.40
2023-03-16T08:52:14.086Z,1.40
2023-03-16T08:54:47.130Z,1.30
2023-03-16T08:57:19.574Z,1.20
2023-03-16T08:59:46.049Z,1.17
2023-03-16T09:02:14.362Z,1.02
2023-03-16T09:04:41.278Z,1.10
2023-03-16T09:07:09.912Z,1.33
2023-03-16T09:09:36.656Z,1.10
2023-03-16T09:12:05.057Z,1.10
2023-03-16T09:14:32.074Z,1.02
2023-03-16T09:16:58.590Z,1.40
2023-03-16T09:19:25.323Z,1.33
2023-03-16T09:21:51.771Z,1.10
2023-03-16T09:24:18.487Z,1.15
2023-03-16T09:26:45.767Z,1.30
2023-03-16T09:29:12.912Z,1.27
2023-03-16T09:31:39.834Z,1.10
2023-03-16T09:34:06.429Z,0.90
2023-03-16T09:36:36.052Z,1.30
2023-03-16T09:39:04.085Z,1.10
2023-03-16T09:41:42.894Z,1.08
2023-03-16T09:44:16.088Z,0.93
2023-03-16T09:46:45.444Z,1.15
2023-03-16T09:49:13.145Z,1.08
2023-03-16T09:51:43.446Z,1.08
2023-03-16T09:54:56.395Z,1.23
2023-03-16T09:58:00.042Z,1.30
2023-03-16T10:01:04.459Z,1.02
2023-03-16T10:03:46.165Z,1.08
2023-03-16T10:06:33.214Z,1.98
2023-03-16T10:09:00.788Z,0.70
2023-03-16T10:11:48.441Z,0.90
2023-03-16T10:14:33.772Z,1.45
2023-03-16T10:17:01.149Z,1.17
2023-03-16T10:19:37.756Z,1.00
2023-03-16T10:22:13.549Z,0.70
2023-03-16T10:24:58.449Z,1.15
2023-03-16T10:27:36.598Z,1.15
2023-03-16T10:30:08.315Z,1.05
2023-03-16T10:32:36.618Z,1.15
2023-03-16T10:35:07.070Z,1.13
2023-03-16T10:37:35.435Z,1.00
2023-03-16T10:40:08.973Z,0.90
2023-03-16T10:42:37.126Z,0.98
2023-03-16T10:45:03.797Z,1.00
2023-03-16T10:47:31.741Z,0.98
2023-03-16T10:49:59.065Z,1.38
2023-03-16T10:52:34.510Z,1.10
2023-03-16T10:55:10.328Z,1.50
2023-03-16T10:57:41.420Z,1.30
2023-03-16T11:00:15.693Z,2.03
2023-03-16T11:02:44.013Z,2.33
2023-03-16T11:05:19.638Z,2.17
2023-03-16T11:07:57.898Z,1.02
2023-03-16T11:10:36.142Z,3.00
2023-03-16T11:13:18.483Z,2.83
2023-03-16T11:15:48.884Z,1.20
2023-03-16T11:18:30.987Z,0.95
2023-03-16T11:21:32.105Z,1.65
2023-03-16T11:23:58.760Z,1.20
2023-03-16T11:26:25.311Z,1.02
2023-03-16T11:28:56.476Z,1.15
2023-03-16T11:31:28.801Z,1.25
2023-03-16T11:33:57.534Z,1.20
2023-03-16T11:36:47.668Z,0.90
2023-03-16T11:39:26.623Z,1.20
2023-03-16T11:42:11.891Z,1.00
2023-03-16T11:44:45.176Z,1.05
2023-03-16T11:47:24.218Z,1.30
2023-03-16T11:49:54.801Z,1.33
2023-03-16T11:52:47.620Z,1.33
2023-03-16T11:55:14.482Z,0.93
2023-03-16T11:57:44.057Z,0.95
2023-03-16T12:00:16.776Z,1.20
2023-03-16T12:02:46.504Z,1.20
2023-03-16T12:05:23.422Z,2.65
2023-03-16T12:07:56.739Z,2.47
2023-03-16T12:10:30.372Z,1.45
2023-03-16T12:13:02.050Z,2.55
2023-03-16T12:15:42.730Z,2.25
2023-03-16T12:18:13.262Z,1.60
2023-03-16T12:20:48.817Z,1.25
2023-03-16T12:25:46.103Z,0.98
2023-03-16T12:28:39.455Z,1.38
2023-03-16T12:31:24.977Z,1.38
2023-03-16T12:34:14.930Z,1.45
2023-03-16T12:36:47.581Z,1.20
2023-03-16T12:39:45.740Z,1.25
2023-03-16T12:42:12.638Z,1.23
2023-03-16T12:44:53.749Z,1.02
2023-03-16T12:47:29.551Z,0.90
2023-03-16T12:50:03.620Z,0.85
2023-03-16T12:52:38.926Z,0.90
2023-03-16T12:55:07.402Z,1.10
2023-03-16T12:57:33.973Z,0.65
2023-03-16T13:00:01.248Z,0.90
2023-03-16T13:02:31.360Z,1.10
2023-03-16T13:05:02.700Z,1.45
2023-03-16T13:07:31.300Z,0.95
2023-03-16T13:10:02.448Z,0.93
2023-03-16T13:12:37.213Z,1.20
2023-03-16T13:15:26.884Z,1.35
2023-03-16T13:18:24.154Z,1.25
2023-03-16T13:20:53.524Z,1.40
2023-03-16T13:23:23.314Z,1.30
2023-03-16T13:26:09.191Z,1.48
2023-03-16T13:28:37.736Z,1.40
2023-03-16T13:31:06.157Z,1.70
2023-03-16T13:33:36.974Z,1.60
2023-03-16T13:36:06.102Z,1.90
2023-03-16T13:38:32.823Z,1.70
2023-03-16T13:41:09.062Z,1.70
2023-03-16T13:43:38.236Z,2.10
2023-03-16T13:46:18.189Z,2.42
2023-03-16T13:48:47.309Z,1.80
2023-03-16T13:51:16.195Z,1.75
2023-03-16T13:53:43.367Z,1.80
2023-03-16T13:56:13.176Z,1.65
2023-03-16T13:58:40.320Z,1.90
2023-03-16T14:01:14.574Z,2.00
2023-03-16T14:03:42.409Z,1.80
2023-03-16T14:06:22.860Z,1.73
2023-03-16T14:08:51.212Z,1.77
2023-03-16T14:11:17.711Z,1.83
2023-03-16T14:13:50.160Z,1.90
2023-03-16T14:16:18.402Z,1.85
2023-03-16T14:18:46.296Z,1.88
2023-03-16T14:21:17.681Z,1.58
2023-03-16T14:23:45.489Z,1.60
2023-03-16T14:26:16.080Z,1.73
2023-03-16T14:28:54.563Z,1.70
2023-03-16T14:31:21.382Z,2.03
2023-03-16T14:33:47.830Z,1.30
2023-03-16T14:36:15.965Z,1.48
2023-03-16T14:38:43.703Z,1.33
2023-03-16T14:41:26.560Z,1.50
2023-03-16T14:44:00.495Z,1.55
2023-03-16T14:46:29.460Z,1.40
2023-03-16T14:49:15.254Z,1.50
2023-03-16T14:51:41.946Z,1.83
2023-03-16T14:54:27.373Z,1.33
2023-03-16T14:56:55.491Z,1.40
2023-03-16T14:59:22.060Z,1.35
2023-03-16T15:01:49.601Z,1.42
2023-03-16T15:04:19.456Z,1.70
2023-03-16T15:06:47.311Z,1.70
2023-03-16T15:09:40.272Z,1.55
2023-03-16T15:12:17.897Z,1.40
2023-03-16T15:15:03.373Z,1.25
2023-03-16T15:17:30.478Z,1.35
2023-03-16T15:19:56.998Z,1.65
2023-03-16T15:22:32.361Z,1.42
2023-03-16T15:25:00.109Z,1.60
2023-03-16T15:27:33.929Z,1.98
2023-03-16T15:30:00.899Z,2.30
2023-03-16T15:32:27.484Z,2.13
2023-03-16T15:34:54.202Z,2.33
2023-03-16T15:37:23.128Z,1.98
2023-03-16T15:39:49.604Z,2.35
2023-03-16T15:42:17.026Z,2.15
2023-03-16T15:44:43.835Z,1.70
2023-03-16T15:47:10.876Z,1.83
2023-03-16T15:49:47.265Z,2.50
2023-03-16T15:52:30.464Z,1.90
2023-03-16T15:55:01.253Z,2.08
2023-03-16T15:57:28.143Z,2.00
2023-03-16T15:59:54.681Z,1.40
2023-03-16T16:02:29.021Z,2.00
2023-03-16T16:04:56.176Z,1.58
2023-03-16T16:07:23.388Z,2.08
2023-03-16T16:09:51.136Z,1.75
2023-03-16T16:12:18.008Z,1.60
2023-03-16T16:14:44.614Z,1.80
2023-03-16T16:17:12.144Z,1.80
2023-03-16T16:19:39.247Z,1.77
2023-03-16T16:22:11.775Z,1.73
2023-03-16T16:24:38.477Z,2.28
2023-03-16T16:27:06.547Z,2.00
2023-03-16T16:29:34.081Z,2.00
2023-03-16T16:32:00.824Z,1.83
2023-03-16T16:34:28.022Z,1.60
2023-03-16T16:36:55.322Z,1.77
2023-03-16T16:39:22.128Z,1.90
2023-03-16T16:41:49.856Z,1.65
2023-03-16T16:44:23.609Z,1.92
2023-03-16T16:46:50.844Z,2.00
2023-03-16T16:49:24.595Z,1.80
2023-03-16T16:51:52.114Z,1.90
2023-03-16T16:54:20.481Z,2.13
2023-03-16T16:56:48.881Z,2.10
2023-03-16T16:59:18.423Z,2.28
2023-03-16T17:01:46.531Z,2.05
2023-03-16T17:04:17.373Z,2.22
2023-03-16T17:06:44.406Z,2.50
2023-03-16T17:09:12.390Z,2.88
2023-03-16T17:11:39.055Z,2.85
2023-03-16T17:14:07.614Z,3.45
2023-03-16T17:16:37.980Z,2.78
2023-03-16T17:19:07.076Z,3.03
2023-03-16T17:21:33.588Z,3.40
2023-03-16T17:24:00.521Z,3.67
2023-03-16T17:26:31.114Z,3.88
2023-03-16T17:29:10.474Z,4.60
2023-03-16T17:31:38.928Z,5.10
2023-03-16T17:34:22.261Z,5.55
2023-03-16T17:36:49.457Z,5.95
2023-03-16T17:39:24.140Z,5.72
2023-03-16T17:42:00.956Z,5.45
2023-03-16T17:44:31.373Z,5.00
2023-03-16T17:46:57.953Z,4.55
2023-03-16T17:49:28.322Z,5.22
2023-03-16T17:51:55.650Z,5.43
2023-03-16T17:54:22.387Z,4.78
2023-03-16T17:56:50.670Z,4.45
2023-03-16T17:59:18.644Z,3.85
2023-03-16T18:01:47.017Z,3.97
2023-03-16T18:04:21.255Z,3.63
2023-03-16T18:06:48.200Z,4.00
2023-03-16T18:09:18.831Z,4.50
2023-03-16T18:11:47.606Z,4.15
2023-03-16T18:14:20.616Z,4.25
2023-03-16T18:16:47.264Z,3.72
2023-03-16T18:19:27.348Z,3.70
2023-03-16T18:21:53.889Z,3.90
2023-03-16T18:24:22.228Z,3.80
2023-03-16T18:26:49.043Z,3.85
2023-03-16T18:29:15.517Z,3.60
2023-03-16T18:31:42.730Z,3.80
2023-03-16T18:34:17.315Z,3.88
2023-03-16T18:36:45.975Z,3.67
2023-03-16T18:39:18.592Z,4.30
2023-03-16T18:41:47.011Z,3.63
2023-03-16T18:44:18.748Z,3.42
2023-03-16T18:46:46.291Z,3.88
2023-03-16T18:49:20.421Z,3.80
2023-03-16T18:51:49.185Z,4.88
2023-03-16T18:54:30.582Z,5.20
2023-03-16T18:56:59.071Z,6.47
2023-03-16T18:59:26.040Z,6.80
2023-03-16T19:01:53.196Z,7.97
2023-03-16T19:04:30.784Z,5.50
2023-03-16T19:06:57.506Z,4.80
2023-03-16T19:09:25.473Z,3.63
2023-03-16T19:11:52.091Z,3.40
2023-03-16T19:14:23.578Z,3.90
2023-03-16T19:16:50.958Z,3.25
2023-03-16T19:19:21.364Z,3.20
2023-03-16T19:21:49.012Z,3.05
2023-03-16T19:24:26.717Z,3.20
2023-03-16T19:26:53.989Z,3.30
2023-03-16T19:29:23.908Z,3.13
2023-03-16T19:31:51.422Z,3.50
2023-03-16T19:34:18.045Z,2.80
2023-03-16T19:36:44.654Z,3.08
2023-03-16T19:39:15.554Z,3.38
2023-03-16T19:41:43.509Z,3.22
2023-03-16T19:44:13.040Z,3.33
2023-03-16T19:46:40.023Z,3.22
2023-03-16T19:49:11.938Z,3.38
2023-03-16T19:51:38.641Z,3.13
2023-03-16T19:54:05.415Z,2.97
2023-03-16T19:56:32.436Z,2.72
2023-03-16T19:58:58.902Z,2.58
2023-03-16T20:01:32.222Z,3.25
2023-03-16T20:03:59.678Z,2.90
2023-03-16T20:06:26.452Z,2.92
2023-03-16T20:08:53.311Z,3.08
2023-03-16T20:11:26.063Z,3.40
2023-03-16T20:13:52.950Z,3.10
2023-03-16T20:16:24.866Z,3.35
2023-03-16T20:18:55.653Z,2.90
2023-03-16T20:21:22.205Z,3.17
2023-03-16T20:23:49.274Z,3.13
2023-03-16T20:26:22.005Z,2.88
2023-03-16T20:28:49.038Z,2.85
2023-03-16T20:31:22.813Z,3.00
2023-03-16T20:33:50.682Z,2.88
2023-03-16T20:36:17.399Z,2.80
2023-03-16T20:38:44.531Z,2.85
2023-03-16T20:41:38.676Z,3.40
2023-03-16T20:44:05.899Z,2.47
2023-03-16T20:46:33.052Z,3.30
2023-03-16T20:49:00.735Z,3.15
2023-03-16T20:51:28.676Z,3.33
2023-03-16T20:53:55.428Z,3.13
2023-03-16T20:56:23.314Z,3.40
2023-03-16T20:58:50.918Z,3.38
2023-03-16T21:01:20.586Z,3.08
2023-03-16T21:03:52.128Z,3.17
2023-03-16T21:06:30.019Z,2.80
2023-03-16T21:08:58.272Z,3.08
2023-03-16T21:11:25.865Z,3.03
2023-03-16T21:13:53.009Z,2.85
2023-03-16T21:16:20.807Z,3.30
2023-03-16T21:18:47.907Z,3.22
2023-03-16T21:21:19.232Z,2.97
2023-03-16T21:23:48.809Z,2.63
2023-03-16T21:26:16.963Z,3.50
2023-03-16T21:28:44.166Z,2.90
2023-03-16T21:31:14.625Z,3.10
2023-03-16T21:33:41.705Z,2.90
2023-03-16T21:36:18.317Z,3.10
2023-03-16T21:38:45.340Z,3.05
2023-03-16T21:41:12.246Z,2.97
2023-03-16T21:43:39.549Z,2.55
2023-03-16T21:46:06.933Z,2.30
2023-03-16T21:48:36.289Z,2.40
2023-03-16T21:51:03.035Z,2.70
2023-03-16T21:53:31.780Z,2.00
2023-03-16T21:55:58.764Z,2.50
2023-03-16T21:58:25.343Z,2.22
2023-03-16T22:00:52.662Z,2.33
2023-03-16T22:03:40.829Z,2.00
2023-03-16T22:06:16.512Z,2.08
2023-03-16T22:08:43.250Z,2.53
2023-03-16T22:11:16.925Z,2.17
2023-03-16T22:13:43.534Z,2.10
2023-03-16T22:16:17.668Z,2.20
2023-03-16T22:18:48.419Z,2.38
2023-03-16T22:21:33.536Z,1.90
2023-03-16T22:24:01.123Z,1.77
2023-03-16T22:26:28.603Z,1.92
2023-03-16T22:28:56.289Z,1.70
2023-03-16T22:31:29.139Z,2.10
2023-03-16T22:33:55.799Z,1.80
2023-03-16T22:36:25.312Z,2.28
2023-03-16T22:38:58.072Z,1.80
2023-03-16T22:41:24.635Z,2.45
2023-03-16T22:43:51.328Z,2.15
2023-03-16T22:46:23.316Z,2.03
2023-03-16T22:48:51.479Z,1.63
2023-03-16T22:51:30.058Z,2.30
2023-03-16T22:53:59.832Z,1.70
2023-03-16T22:56:27.248Z,1.70
2023-03-16T22:58:58.998Z,1.50
2023-03-16T23:01:42.605Z,1.90
2023-03-16T23:04:19.946Z,2.00
2023-03-16T23:06:47.284Z,1.95
2023-03-16T23:09:15.427Z,1.48
2023-03-16T23:11:43.756Z,1.85
2023-03-16T23:14:14.575Z,1.80
2023-03-16T23:16:41.846Z,1.95
2023-03-16T23:19:27.902Z,1.75
2023-03-16T23:21:55.477Z,1.42
2023-03-16T23:24:22.329Z,1.55
2023-03-16T23:26:49.231Z,1.50
2023-03-16T23:29:15.792Z,1.92
2023-03-16T23:31:42.534Z,1.65
2023-03-16T23:34:12.578Z,2.00
2023-03-16T23:36:39.113Z,1.90
2023-03-16T23:39:06.149Z,1.38
2023-03-16T23:41:33.642Z,1.83
2023-03-16T23:44:00.623Z,1.85
2023-03-16T23:46:29.193Z,1.65
2023-03-16T23:48:57.131Z,1.70
2023-03-16T23:51:41.492Z,1.60
2023-03-16T23:54:17.689Z,1.80
2023-03-16T23:56:44.187Z,1.92
2023-03-16T23:59:14.046Z,1.77
